createdAt,value
2019-04-10T00:00:44.159Z,14.60
2019-04-10T00:03:25.888Z,14.47
2019-04-10T00:05:44.873Z,13.13
2019-04-10T00:08:14.367Z,14.87
2019-04-10T00:10:43.858Z,14.83
2019-04-10T00:13:14.200Z,14.80
2019-04-10T00:15:43.653Z,13.53
2019-04-10T00:18:13.732Z,15.00
2019-04-10T00:20:43.116Z,15.13
2019-04-10T00:23:13.162Z,13.93
2019-04-10T00:25:43.462Z,14.73
2019-04-10T00:28:12.905Z,14.13
2019-04-10T00:30:43.036Z,14.00
2019-04-10T00:33:12.526Z,13.83
2019-04-10T00:35:41.876Z,13.77
2019-04-10T00:38:11.230Z,13.57
2019-04-10T00:40:41.559Z,13.53
2019-04-10T00:43:10.993Z,13.43
2019-04-10T00:45:40.356Z,14.23
2019-04-10T00:48:10.012Z,13.77
2019-04-10T00:50:39.402Z,13.90
2019-04-10T00:53:08.744Z,22.13
2019-04-10T00:55:38.145Z,22.23
2019-04-10T00:58:07.522Z,14.30
2019-04-10T01:00:37.054Z,14.97
2019-04-10T01:03:07.376Z,14.60
2019-04-10T01:05:37.662Z,14.73
2019-04-10T01:08:07.086Z,15.50
2019-04-10T01:10:36.765Z,14.23
2019-04-10T01:13:06.331Z,14.00
2019-04-10T01:15:36.467Z,13.30
2019-04-10T01:18:06.733Z,13.70
2019-04-10T01:20:36.190Z,13.27
2019-04-10T01:23:05.868Z,12.13
2019-04-10T01:25:35.327Z,12.37
2019-04-10T01:28:04.748Z,12.20
2019-04-10T01:30:34.793Z,11.43
2019-04-10T01:33:04.250Z,11.60
2019-04-10T01:35:34.202Z,11.30
2019-04-10T01:38:05.907Z,12.33
2019-04-10T01:40:35.191Z,13.23
2019-04-10T01:43:10.827Z,12.80
2019-04-10T01:45:35.760Z,12.50
2019-04-10T01:48:05.950Z,15.43
2019-04-10T01:50:35.420Z,15.50
2019-04-10T01:53:05.616Z,16.50
2019-04-10T01:55:35.749Z,15.07
2019-04-10T01:58:08.559Z,15.30
2019-04-10T02:00:39.542Z,16.27
2019-04-10T02:03:09.808Z,15.90
2019-04-10T02:05:39.315Z,16.23
2019-04-10T02:08:12.765Z,15.53
2019-04-10T02:10:40.539Z,16.23
2019-04-10T02:13:09.964Z,16.37
2019-04-10T02:15:39.373Z,16.67
2019-04-10T02:18:09.077Z,16.53
2019-04-10T02:20:38.908Z,15.93
2019-04-10T02:23:08.445Z,15.03
2019-04-10T02:25:38.983Z,16.43
2019-04-10T02:28:08.997Z,19.37
2019-04-10T02:30:39.625Z,18.10
2019-04-10T02:33:10.716Z,20.23
2019-04-10T02:35:40.243Z,18.77
2019-04-10T02:38:25.958Z,17.43
2019-04-10T02:40:41.681Z,16.00
2019-04-10T02:43:12.442Z,15.53
2019-04-10T02:45:44.246Z,15.60
2019-04-10T02:48:14.906Z,16.27
2019-04-10T02:50:45.766Z,17.80
2019-04-10T02:53:15.892Z,17.70
2019-04-10T02:55:45.324Z,16.93
2019-04-10T02:58:15.935Z,15.77
2019-04-10T03:00:46.372Z,16.00
2019-04-10T03:03:16.045Z,15.80
2019-04-10T03:05:46.654Z,15.27
2019-04-10T03:08:17.356Z,15.00
2019-04-10T03:10:50.608Z,14.60
2019-04-10T03:13:18.341Z,15.73
2019-04-10T03:15:49.877Z,15.27
2019-04-10T03:18:20.886Z,16.87
2019-04-10T03:20:50.921Z,15.67
2019-04-10T03:23:21.076Z,16.17
2019-04-10T03:25:50.955Z,15.43
2019-04-10T03:28:20.361Z,15.40
2019-04-10T03:30:49.734Z,14.90
2019-04-10T03:33:36.031Z,15.23
2019-04-10T03:36:05.282Z,14.67
2019-04-10T03:38:47.326Z,13.97
2019-04-10T03:41:06.111Z,14.03
2019-04-10T03:43:36.144Z,14.23
2019-04-10T03:46:05.999Z,13.60
2019-04-10T03:48:36.775Z,14.03
2019-04-10T03:51:06.109Z,14.27
2019-04-10T03:53:35.386Z,13.87
2019-04-10T03:56:05.367Z,14.13
2019-04-10T03:58:35.642Z,14.17
2019-04-10T04:01:05.064Z,15.67
2019-04-10T04:03:35.060Z,16.23
2019-04-10T04:06:04.562Z,18.93
2019-04-10T04:08:34.015Z,18.27
2019-04-10T04:11:04.845Z,21.53
2019-04-10T04:13:35.513Z,22.87
2019-04-10T04:16:06.672Z,18.53
2019-04-10T04:18:37.209Z,18.50
2019-04-10T04:21:07.675Z,15.80
2019-04-10T04:23:38.189Z,15.40
2019-04-10T04:26:08.755Z,15.70
2019-04-10T04:28:38.116Z,16.53
2019-04-10T04:31:07.516Z,15.37
2019-04-10T04:33:36.869Z,16.47
2019-04-10T04:36:06.457Z,15.87
2019-04-10T04:38:36.797Z,15.10
2019-04-10T04:41:06.854Z,25.30
2019-04-10T04:43:37.037Z,15.87
2019-04-10T04:46:06.542Z,14.90
2019-04-10T04:48:36.887Z,15.17
2019-04-10T04:51:06.689Z,14.13
2019-04-10T04:53:36.485Z,14.70
2019-04-10T04:56:06.031Z,14.73
2019-04-10T04:58:36.065Z,14.77
2019-04-10T05:01:06.283Z,14.97
2019-04-10T05:03:35.713Z,15.53
2019-04-10T05:06:05.915Z,15.07
2019-04-10T05:08:35.363Z,14.00
2019-04-10T05:11:04.710Z,14.43
2019-04-10T05:13:34.887Z,14.27
2019-04-10T05:16:04.286Z,14.83
2019-04-10T05:18:33.692Z,14.87
2019-04-10T05:21:03.115Z,15.27
2019-04-10T05:23:33.092Z,15.13
2019-04-10T05:26:02.553Z,15.40
2019-04-10T05:28:32.741Z,15.43
2019-04-10T05:31:03.084Z,15.63
2019-04-10T05:33:33.171Z,16.80
2019-04-10T05:36:02.676Z,15.70
2019-04-10T05:38:32.028Z,15.23
2019-04-10T05:41:01.470Z,16.03
2019-04-10T05:43:30.783Z,15.60
2019-04-10T05:46:00.149Z,15.70
2019-04-10T05:48:29.536Z,20.47
2019-04-10T05:51:03.081Z,19.20
2019-04-10T05:53:30.005Z,20.47
2019-04-10T05:55:59.404Z,20.50
2019-04-10T05:58:29.350Z,18.97
2019-04-10T06:01:01.039Z,15.60
2019-04-10T06:03:30.477Z,18.27
2019-04-10T06:06:01.158Z,15.37
2019-04-10T06:08:31.195Z,14.40
2019-04-10T06:11:00.615Z,13.53
2019-04-10T06:13:30.050Z,14.23
2019-04-10T06:15:59.683Z,14.37
2019-04-10T06:18:29.316Z,14.57
2019-04-10T06:20:58.903Z,14.57
2019-04-10T06:23:28.287Z,15.13
2019-04-10T06:25:58.383Z,15.23
2019-04-10T06:28:29.289Z,15.90
2019-04-10T06:31:00.460Z,15.33
2019-04-10T06:33:29.962Z,15.17
2019-04-10T06:35:59.374Z,14.93
2019-04-10T06:38:28.808Z,14.60
2019-04-10T06:40:58.098Z,15.57
2019-04-10T06:43:28.694Z,15.00
2019-04-10T06:45:58.223Z,15.50
2019-04-10T06:48:27.919Z,14.97
2019-04-10T06:50:57.337Z,15.03
2019-04-10T06:53:26.902Z,16.00
2019-04-10T06:55:59.140Z,15.93
2019-04-10T06:58:28.687Z,18.13
2019-04-10T07:01:01.379Z,18.43
2019-04-10T07:03:45.756Z,16.73
2019-04-10T07:06:07.790Z,17.43
2019-04-10T07:08:31.984Z,16.27
2019-04-10T07:11:05.984Z,15.33
2019-04-10T07:13:36.819Z,17.13
2019-04-10T07:16:04.256Z,15.37
2019-04-10T07:18:35.874Z,15.63
2019-04-10T07:21:04.828Z,16.33
2019-04-10T07:23:34.178Z,16.30
2019-04-10T07:26:03.996Z,16.27
2019-04-10T07:28:36.198Z,17.03
2019-04-10T07:31:07.240Z,16.90
2019-04-10T07:33:35.676Z,17.13
2019-04-10T07:36:08.959Z,15.60
2019-04-10T07:38:37.157Z,16.90
2019-04-10T07:41:13.731Z,16.70
2019-04-10T07:43:38.655Z,17.50
2019-04-10T07:46:08.247Z,17.13
2019-04-10T07:48:37.900Z,16.73
2019-04-10T07:51:07.413Z,16.90
2019-04-10T07:53:37.295Z,14.87
2019-04-10T07:56:12.017Z,14.87
2019-04-10T07:58:37.830Z,14.80
2019-04-10T08:01:07.906Z,14.90
2019-04-10T08:03:37.456Z,16.60
2019-04-10T08:06:06.856Z,16.10
2019-04-10T08:08:36.324Z,15.83
2019-04-10T08:11:07.046Z,15.80
2019-04-10T08:13:36.589Z,15.93
2019-04-10T08:16:06.323Z,15.53
2019-04-10T08:18:35.786Z,15.97
2019-04-10T08:21:05.194Z,15.17
2019-04-10T08:23:35.658Z,14.67
2019-04-10T08:26:05.774Z,14.90
2019-04-10T08:28:35.215Z,13.77
2019-04-10T08:31:04.598Z,13.70
2019-04-10T08:33:35.045Z,14.53
2019-04-10T08:36:05.316Z,15.70
2019-04-10T08:41:10.729Z,14.17
2019-04-10T08:43:40.087Z,14.73
2019-04-10T08:46:10.744Z,13.97
2019-04-10T08:48:41.237Z,13.90
2019-04-10T08:51:10.830Z,16.60
2019-04-10T08:53:40.345Z,16.40
2019-04-10T08:56:10.752Z,15.93
2019-04-10T08:58:41.267Z,17.43
2019-04-10T09:01:11.188Z,16.37
2019-04-10T09:03:41.285Z,17.77
2019-04-10T09:06:11.275Z,18.10
2019-04-10T09:11:13.022Z,17.23
2019-04-10T09:13:42.384Z,16.23
2019-04-10T09:16:12.135Z,12.57
2019-04-10T09:18:41.627Z,14.33
2019-04-10T09:21:11.172Z,13.10
2019-04-10T09:23:47.360Z,13.63
2019-04-10T09:26:11.701Z,14.90
2019-04-10T09:28:42.171Z,17.40
2019-04-10T09:31:11.958Z,16.10
2019-04-10T09:33:41.310Z,14.57
2019-04-10T09:36:11.175Z,15.33
2019-04-10T09:38:41.045Z,14.23
2019-04-10T09:41:10.522Z,14.43
2019-04-10T09:43:40.094Z,14.57
2019-04-10T09:46:10.095Z,13.37
2019-04-10T09:48:40.624Z,20.93
2019-04-10T09:51:09.967Z,14.20
2019-04-10T09:53:39.354Z,13.27
2019-04-10T09:56:09.530Z,13.00
2019-04-10T09:58:38.966Z,12.77
2019-04-10T10:01:14.534Z,13.47
2019-04-10T10:03:44.520Z,12.23
2019-04-10T10:06:25.108Z,12.20
2019-04-10T10:08:44.978Z,11.33
2019-04-10T10:11:14.395Z,11.63
2019-04-10T10:13:43.755Z,12.27
2019-04-10T10:16:13.129Z,12.77
2019-04-10T10:18:43.585Z,12.50
2019-04-10T10:21:13.053Z,11.97
2019-04-10T10:23:43.156Z,12.10
2019-04-10T10:26:13.026Z,12.43
2019-04-10T10:28:42.927Z,12.80
2019-04-10T10:31:13.684Z,12.50
2019-04-10T10:33:43.182Z,12.20
2019-04-10T10:36:13.521Z,11.70
2019-04-10T10:38:43.362Z,12.20
2019-04-10T10:41:13.032Z,11.67
2019-04-10T10:43:42.650Z,11.90
2019-04-10T10:46:12.044Z,12.23
2019-04-10T10:48:42.052Z,12.40
2019-04-10T10:51:12.792Z,13.20
2019-04-10T10:53:42.392Z,12.03
2019-04-10T10:56:11.948Z,11.83
2019-04-10T10:58:41.292Z,11.70
2019-04-10T11:01:11.605Z,11.50
2019-04-10T11:03:41.009Z,11.27
2019-04-10T11:06:10.861Z,11.00
2019-04-10T11:08:40.340Z,11.83
2019-04-10T11:11:10.889Z,10.93
2019-04-10T11:13:40.917Z,11.67
2019-04-10T11:16:10.412Z,10.50
2019-04-10T11:18:40.363Z,9.53
2019-04-10T11:21:11.688Z,9.73
2019-04-10T11:23:42.200Z,9.40
2019-04-10T11:26:14.052Z,9.30
2019-04-10T11:28:43.272Z,9.30
2019-04-10T11:31:13.596Z,9.73
2019-04-10T11:33:47.518Z,10.30
2019-04-10T11:36:15.128Z,10.20
2019-04-10T11:38:45.363Z,9.83
2019-04-10T11:41:18.081Z,11.07
2019-04-10T11:43:48.053Z,10.93
2019-04-10T11:46:17.479Z,10.20
2019-04-10T11:48:46.981Z,9.73
2019-04-10T11:51:16.527Z,9.67
2019-04-10T11:53:50.757Z,10.17
2019-04-10T11:56:19.141Z,9.87
2019-04-10T11:58:54.128Z,9.07
2019-04-10T12:01:21.555Z,8.93
2019-04-10T12:03:52.215Z,9.87
2019-04-10T12:06:24.770Z,10.20
2019-04-10T12:09:13.649Z,9.53
2019-04-10T12:11:24.704Z,9.10
2019-04-10T12:13:54.576Z,9.50
2019-04-10T12:16:25.095Z,8.77
2019-04-10T12:18:55.037Z,8.60
2019-04-10T12:21:26.224Z,8.20
2019-04-10T12:23:55.625Z,8.23
2019-04-10T12:26:25.522Z,8.10
2019-04-10T12:28:55.036Z,7.80
2019-04-10T12:31:26.014Z,7.40
2019-04-10T12:33:56.964Z,8.03
2019-04-10T12:36:26.665Z,7.90
2019-04-10T12:38:56.250Z,7.87
2019-04-10T12:41:25.621Z,8.47
2019-04-10T12:43:55.056Z,7.30
2019-04-10T12:46:24.480Z,8.20
2019-04-10T12:48:54.932Z,8.13
2019-04-10T12:51:24.369Z,9.07
2019-04-10T12:53:54.053Z,8.27
2019-04-10T12:56:24.096Z,9.20
2019-04-10T12:58:53.575Z,8.17
2019-04-10T13:01:22.925Z,7.63
2019-04-10T13:03:52.293Z,7.80
2019-04-10T13:06:22.067Z,7.80
2019-04-10T13:09:00.879Z,7.50
2019-04-10T13:11:22.811Z,8.20
2019-04-10T13:13:52.757Z,7.90
2019-04-10T13:16:22.118Z,7.60
2019-04-10T13:18:52.343Z,7.50
2019-04-10T13:21:22.160Z,8.03
2019-04-10T13:23:51.636Z,7.80
2019-04-10T13:26:21.771Z,8.00
2019-04-10T13:28:51.834Z,8.20
2019-04-10T13:31:21.466Z,8.87
2019-04-10T13:33:51.118Z,8.43
2019-04-10T13:36:21.569Z,14.43
2019-04-10T13:38:51.195Z,9.07
2019-04-10T13:41:20.765Z,8.33
2019-04-10T13:43:50.143Z,8.70
2019-04-10T13:46:20.517Z,8.43
2019-04-10T13:48:49.950Z,8.10
2019-04-10T13:51:19.426Z,9.00
2019-04-10T13:53:48.757Z,8.47
2019-04-10T13:56:19.101Z,8.43
2019-04-10T13:58:48.795Z,8.07
2019-04-10T14:01:25.321Z,8.10
2019-04-10T14:03:54.713Z,8.87
2019-04-10T14:06:24.170Z,8.27
2019-04-10T14:09:10.078Z,15.33
2019-04-10T14:11:25.041Z,10.17
2019-04-10T14:13:54.406Z,8.53
2019-04-10T14:16:24.477Z,8.80
2019-04-10T14:18:53.909Z,9.17
2019-04-10T14:21:23.269Z,8.80
2019-04-10T14:23:53.581Z,8.80
2019-04-10T14:26:46.595Z,8.87
2019-04-10T14:29:14.430Z,9.27
2019-04-10T14:32:01.730Z,10.07
2019-04-10T14:34:31.367Z,10.00
2019-04-10T14:37:01.138Z,9.63
2019-04-10T14:39:31.418Z,9.77
2019-04-10T14:42:00.889Z,15.33
2019-04-10T14:44:30.613Z,9.67
2019-04-10T14:47:00.282Z,9.60
2019-04-10T14:49:29.731Z,10.20
2019-04-10T14:51:59.099Z,10.07
2019-04-10T14:54:28.493Z,10.87
2019-04-10T14:56:58.788Z,10.73
2019-04-10T14:59:28.270Z,9.90
2019-04-10T15:01:58.017Z,9.93
2019-04-10T15:04:27.464Z,10.43
2019-04-10T15:06:57.574Z,10.50
2019-04-10T15:09:27.715Z,9.57
2019-04-10T15:11:57.310Z,10.03
2019-04-10T15:14:27.861Z,9.27
2019-04-10T15:17:02.656Z,10.70
2019-04-10T15:19:28.986Z,9.83
2019-04-10T15:21:59.107Z,9.20
2019-04-10T15:24:28.814Z,9.37
2019-04-10T15:26:58.167Z,9.20
2019-04-10T15:29:28.090Z,9.27
2019-04-10T15:31:57.842Z,10.28
2019-04-10T15:34:28.242Z,9.33
2019-04-10T15:36:58.495Z,9.47
2019-04-10T15:42:03.760Z,9.27
2019-04-10T15:44:34.198Z,8.83
2019-04-10T15:47:14.553Z,10.53
2019-04-10T15:49:36.745Z,9.70
2019-04-10T15:52:06.181Z,9.57
2019-04-10T15:54:36.064Z,9.57
2019-04-10T15:57:06.740Z,23.90
2019-04-10T15:59:36.631Z,9.43
2019-04-10T16:02:06.233Z,10.47
2019-04-10T16:04:35.881Z,9.43
2019-04-10T16:07:06.232Z,9.53
2019-04-10T16:09:46.337Z,9.60
2019-04-10T16:12:16.649Z,10.47
2019-04-10T16:14:46.562Z,10.37
2019-04-10T16:17:26.508Z,11.07
2019-04-10T16:20:17.890Z,10.70
2019-04-10T16:23:12.362Z,11.37
2019-04-10T16:25:46.657Z,10.77
2019-04-10T16:28:16.275Z,11.17
2019-04-10T16:30:46.609Z,11.53
2019-04-10T16:33:16.903Z,11.13
2019-04-10T16:35:46.366Z,11.43
2019-04-10T16:38:16.358Z,10.10
2019-04-10T16:40:46.015Z,17.57
2019-04-10T16:43:16.000Z,11.20
2019-04-10T16:45:45.534Z,11.37
2019-04-10T16:48:15.154Z,10.87
2019-04-10T16:50:45.669Z,10.47
2019-04-10T16:53:16.025Z,12.33
2019-04-10T16:55:45.571Z,11.83
2019-04-10T16:58:15.907Z,12.13
2019-04-10T17:00:45.421Z,11.73
2019-04-10T17:03:15.650Z,12.73
2019-04-10T17:05:45.957Z,13.27
2019-04-10T17:08:16.142Z,15.47
2019-04-10T17:10:45.934Z,14.63
2019-04-10T17:13:16.252Z,14.63
2019-04-10T17:15:48.544Z,17.13
2019-04-10T17:18:17.131Z,14.63
2019-04-10T17:20:46.882Z,13.43
2019-04-10T17:23:16.485Z,13.17
2019-04-10T17:25:46.540Z,12.87
2019-04-10T17:28:16.444Z,39.23
2019-04-10T17:30:46.373Z,18.20
2019-04-10T17:33:16.617Z,13.87
2019-04-10T17:35:46.105Z,15.70
2019-04-10T17:38:15.504Z,17.00
2019-04-10T17:40:50.621Z,14.97
2019-04-10T17:43:18.932Z,16.13
2019-04-10T17:45:49.003Z,15.70
2019-04-10T17:48:19.799Z,14.70
2019-04-10T17:50:49.823Z,17.57
2019-04-10T17:53:29.382Z,16.27
2019-04-10T17:56:09.260Z,14.13
2019-04-10T17:58:38.811Z,15.27
2019-04-10T18:01:12.510Z,14.43
2019-04-10T18:03:50.578Z,14.73
2019-04-10T18:06:13.368Z,15.00
2019-04-10T18:08:43.161Z,15.23
2019-04-10T18:11:14.133Z,14.73
2019-04-10T18:13:44.849Z,14.30
2019-04-10T18:16:14.724Z,14.43
2019-04-10T18:18:45.728Z,16.10
2019-04-10T18:21:16.841Z,15.10
2019-04-10T18:23:47.379Z,18.13
2019-04-10T18:26:20.283Z,16.47
2019-04-10T18:28:48.018Z,16.07
2019-04-10T18:31:18.683Z,16.23
2019-04-10T18:33:48.956Z,17.20
2019-04-10T18:36:19.468Z,17.30
2019-04-10T18:38:55.199Z,16.20
2019-04-10T18:41:24.604Z,15.83
2019-04-10T18:43:54.051Z,17.37
2019-04-10T18:46:24.014Z,20.00
2019-04-10T18:48:54.739Z,36.40
2019-04-10T18:51:25.680Z,18.97
2019-04-10T18:53:55.460Z,20.60
2019-04-10T18:56:25.342Z,29.80
2019-04-10T18:59:29.000Z,23.90
2019-04-10T19:02:15.899Z,21.83
2019-04-10T19:04:57.175Z,20.50
2019-04-10T19:07:26.569Z,23.37
2019-04-10T19:09:56.666Z,24.13
2019-04-10T19:12:26.507Z,20.47
2019-04-10T19:14:56.338Z,20.97
2019-04-10T19:17:26.679Z,20.27
2019-04-10T19:19:56.829Z,20.30
2019-04-10T19:22:26.355Z,20.70
2019-04-10T19:24:56.706Z,24.97
2019-04-10T19:27:26.731Z,23.80
2019-04-10T19:29:57.021Z,24.13
2019-04-10T19:32:35.556Z,24.43
2019-04-10T19:35:06.605Z,24.37
2019-04-10T19:37:36.742Z,24.50
2019-04-10T19:40:07.048Z,23.00
2019-04-10T19:42:37.615Z,25.13
2019-04-10T19:45:07.922Z,24.83
2019-04-10T19:47:38.744Z,26.10
2019-04-10T19:50:09.045Z,25.83
2019-04-10T19:52:38.501Z,26.27
2019-04-10T19:55:08.250Z,32.43
2019-04-10T19:57:37.552Z,24.70
2019-04-10T20:00:10.559Z,25.57
2019-04-10T20:02:40.598Z,24.33
2019-04-10T20:05:10.911Z,25.27
2019-04-10T20:07:40.859Z,23.83
2019-04-10T20:10:10.892Z,24.50
2019-04-10T20:12:40.472Z,23.63
2019-04-10T20:15:12.094Z,22.17
2019-04-10T20:17:41.663Z,22.40
2019-04-10T20:20:11.239Z,22.00
2019-04-10T20:22:41.755Z,19.63
2019-04-10T20:25:12.382Z,20.40
2019-04-10T20:27:42.494Z,20.10
2019-04-10T20:30:12.151Z,19.90
2019-04-10T20:32:42.005Z,19.03
2019-04-10T20:35:11.936Z,18.90
2019-04-10T20:37:41.510Z,18.47
2019-04-10T20:40:11.921Z,20.73
2019-04-10T20:42:42.496Z,20.13
2019-04-10T20:45:14.231Z,19.50
2019-04-10T20:47:43.501Z,19.00
2019-04-10T20:50:12.978Z,21.00
2019-04-10T20:52:43.247Z,21.67
2019-04-10T20:55:13.220Z,20.33
2019-04-10T20:57:43.787Z,21.27
2019-04-10T21:00:20.379Z,22.13
2019-04-10T21:02:50.855Z,26.63
2019-04-10T21:05:20.273Z,26.77
2019-04-10T21:07:50.203Z,25.43
2019-04-10T21:10:19.696Z,26.00
2019-04-10T21:12:49.090Z,27.87
2019-04-10T21:15:19.559Z,31.60
2019-04-10T21:17:49.122Z,33.97
2019-04-10T21:20:18.559Z,32.07
2019-04-10T21:22:47.886Z,31.90
2019-04-10T21:25:17.264Z,33.30
2019-04-10T21:27:49.217Z,36.60
2019-04-10T21:30:36.069Z,33.00
2019-04-10T21:33:24.692Z,30.80
2019-04-10T21:35:54.177Z,27.13
2019-04-10T21:38:23.659Z,27.10
2019-04-10T21:40:53.038Z,26.80
2019-04-10T21:43:22.829Z,27.10
2019-04-10T21:45:52.350Z,25.70
2019-04-10T21:48:22.386Z,28.27
2019-04-10T21:50:51.978Z,26.93
2019-04-10T21:53:25.084Z,28.07
2019-04-10T21:55:55.523Z,26.73
2019-04-10T21:58:25.162Z,24.20
2019-04-10T22:01:13.626Z,24.07
2019-04-10T22:03:43.547Z,22.77
2019-04-10T22:06:19.862Z,23.40
2019-04-10T22:08:59.507Z,19.80
2019-04-10T22:11:30.807Z,21.53
2019-04-10T22:14:00.489Z,19.57
2019-04-10T22:16:30.304Z,18.73
2019-04-10T22:18:59.616Z,18.90
2019-04-10T22:21:29.202Z,18.37
2019-04-10T22:23:58.874Z,18.43
2019-04-10T22:26:28.336Z,17.40
2019-04-10T22:28:57.882Z,18.27
2019-04-10T22:31:27.941Z,19.70
2019-04-10T22:33:57.571Z,21.37
2019-04-10T22:36:26.917Z,21.27
2019-04-10T22:38:56.269Z,22.07
2019-04-10T22:41:30.709Z,22.10
2019-04-10T22:43:57.053Z,21.43
2019-04-10T22:46:26.492Z,21.57
2019-04-10T22:48:55.907Z,23.27
2019-04-10T22:51:25.260Z,21.47
2019-04-10T22:53:55.542Z,21.60
2019-04-10T22:56:25.214Z,22.27
2019-04-10T22:58:54.567Z,22.13
2019-04-10T23:01:23.944Z,20.87
2019-04-10T23:03:53.332Z,20.47
2019-04-10T23:06:23.082Z,20.53
2019-04-10T23:08:52.661Z,24.03
2019-04-10T23:11:31.739Z,21.97
2019-04-10T23:13:54.272Z,21.17
2019-04-10T23:16:24.163Z,21.93
2019-04-10T23:18:53.924Z,21.53
2019-04-10T23:21:23.381Z,21.27
2019-04-10T23:23:52.773Z,21.00
2019-04-10T23:26:22.860Z,22.60
2019-04-10T23:28:52.680Z,19.83
2019-04-10T23:31:22.329Z,18.87
2019-04-10T23:33:52.430Z,20.03
2019-04-10T23:36:23.094Z,20.23
2019-04-10T23:38:52.863Z,20.20
2019-04-10T23:41:23.259Z,20.53
2019-04-10T23:43:53.631Z,18.17
2019-04-10T23:46:23.168Z,19.50
2019-04-10T23:48:52.991Z,19.50
2019-04-10T23:51:23.126Z,18.73
2019-04-10T23:53:53.031Z,18.60
2019-04-10T23:56:22.618Z,17.90
2019-04-10T23:58:51.957Z,18.97
